Time;durP1;ratioP1;P1;durP2;ratioP2;P2;SDS_P1;SDS_P2;PMS_P1;PMS_P2;Temp;Humidity;BMP_temperature;BMP_pressure;BME280_temperature;BME280_humidity;BME280_pressure;Samples;Min_cycle;Max_cycle;Signal;HPM_P1;HPM_P2
2022/11/20 00:00:16;;;;;;;27.55;13.68;;;;;;;;;;6099898;23;20069;-74
2022/11/20 00:03:17;;;;;;;;;;;;;;;;;;;;;
2022/11/20 00:05:50;;;;;;;28.48;14.35;;;;;;;;;;6126563;23;20085;-76
2022/11/20 00:08:37;;;;;;;29.80;14.50;;;;;;;;;;6123276;23;20146;-75
2022/11/20 00:11:15;;;;;;;31.00;14.40;;;;;;;;;;6100332;23;20350;-76
2022/11/20 00:13:53;;;;;;;28.60;13.90;;;;;;;;;;6101172;23;20037;-77
2022/11/20 00:16:38;;;;;;;28.58;14.95;;;;;;;;;;6100237;23;20082;-75
2022/11/20 00:19:20;;;;;;;31.75;15.52;;;;;;;;;;6100100;23;20010;-76
2022/11/20 00:21:55;;;;;;;32.10;15.73;;;;;;;;;;6099596;23;20084;-75
2022/11/20 00:24:29;;;;;;;29.00;15.40;;;;;;;;;;6099805;23;20002;-75
2022/11/20 00:27:14;;;;;;;30.67;15.13;;;;;;;;;;6101502;23;20010;-76
2022/11/20 00:29:56;;;;;;;29.13;13.27;;;;;;;;;;6101092;23;20013;-77
2022/11/20 00:32:32;;;;;;;27.27;13.27;;;;;;;;;;6099564;23;20422;-77
2022/11/20 00:35:14;;;;;;;25.33;13.55;;;;;;;;;;6099282;23;19998;-76
2022/11/20 00:38:10;;;;;;;;;;;;;;;;;;;;;
2022/11/20 00:40:40;;;;;;;25.70;12.90;;;;;;;;;;6125514;23;20077;-76
2022/11/20 00:46:09;;;;;;;28.50;13.80;;;;;;;;;;6124889;23;20057;-78
2022/11/20 00:48:41;;;;;;;29.73;14.35;;;;;;;;;;6124842;23;20006;-75
2022/11/20 00:51:11;;;;;;;26.10;13.48;;;;;;;;;;6099355;23;20481;-76
2022/11/20 00:53:40;;;;;;;27.38;13.38;;;;;;;;;;6099108;23;20064;-75
2022/11/20 00:56:42;;;;;;;24.83;11.98;;;;;;;;;;6123332;23;20064;-75
2022/11/20 00:59:16;;;;;;;27.10;12.57;;;;;;;;;;6098719;23;20010;-76
2022/11/20 01:01:51;;;;;;;26.13;12.05;;;;;;;;;;6099848;23;20012;-77
2022/11/20 01:04:35;;;;;;;30.63;14.57;;;;;;;;;;6102632;23;20017;-78
2022/11/20 01:07:06;;;;;;;28.92;13.55;;;;;;;;;;6099038;23;20269;-75
2022/11/20 01:09:35;;;;;;;24.52;12.45;;;;;;;;;;6124872;23;20009;-75
2022/11/20 01:12:04;;;;;;;26.13;12.93;;;;;;;;;;6125182;23;20077;-77
2022/11/20 01:14:33;;;;;;;31.38;15.15;;;;;;;;;;6124841;23;20442;-75
2022/11/20 01:17:13;;;;;;;26.73;13.32;;;;;;;;;;6125183;23;20002;-75
2022/11/20 01:19:48;;;;;;;32.50;15.00;;;;;;;;;;6099144;23;20001;-76
2022/11/20 01:22:32;;;;;;;;;;;;;;;;;;;;;
2022/11/20 01:25:18;;;;;;;30.13;14.05;;;;;;;;;;6123553;23;20084;-76
2022/11/20 01:27:44;;;;;;;29.00;13.73;;;;;;;;;;6124991;23;20324;-76
2022/11/20 01:30:36;;;;;;;29.63;13.98;;;;;;;;;;6124965;23;20005;-76
2022/11/20 01:33:08;;;;;;;28.95;12.25;;;;;;;;;;6099265;23;20350;-75
2022/11/20 01:35:34;;;;;;;26.10;12.82;;;;;;;;;;6125158;23;20012;-75
2022/11/20 01:38:02;;;;;;;25.85;12.85;;;;;;;;;;6098528;23;20006;-72
2022/11/20 01:40:28;;;;;;;28.67;12.93;;;;;;;;;;6099094;23;20009;-74
2022/11/20 01:43:20;;;;;;;29.98;12.90;;;;;;;;;;6098898;23;20006;-75
2022/11/20 01:46:04;;;;;;;27.00;12.38;;;;;;;;;;6124601;23;20082;-73
2022/11/20 01:48:43;;;;;;;27.33;13.20;;;;;;;;;;6098258;23;20005;-75
2022/11/20 01:51:14;;;;;;;29.27;14.10;;;;;;;;;;6098974;23;20025;-78
2022/11/20 01:53:41;;;;;;;27.83;13.10;;;;;;;;;;6098819;23;20033;-75
2022/11/20 01:56:09;;;;;;;26.23;12.73;;;;;;;;;;6125152;23;20080;-75
2022/11/20 01:58:36;;;;;;;24.33;12.30;;;;;;;;;;6098266;23;20006;-74
2022/11/20 02:01:05;;;;;;;26.55;11.95;;;;;;;;;;6099131;23;20085;-75
2022/11/20 02:03:34;;;;;;;26.92;13.43;;;;;;;;;;6124687;23;20505;-78
2022/11/20 02:06:09;;;;;;;24.70;12.13;;;;;;;;;;6099059;23;20426;-75
2022/11/20 02:08:36;;;;;;;26.45;11.63;;;;;;;;;;6124317;23;20006;-74
2022/11/20 02:11:02;;;;;;;27.77;13.63;;;;;;;;;;6098879;23;20088;-74
2022/11/20 02:13:43;;;;;;;27.33;12.52;;;;;;;;;;6098808;23;20009;-77
2022/11/20 02:16:12;;;;;;;25.30;12.43;;;;;;;;;;6098725;23;20006;-75
2022/11/20 02:18:39;;;;;;;25.98;12.43;;;;;;;;;;6124427;23;20347;-75
2022/11/20 02:21:11;;;;;;;25.33;11.98;;;;;;;;;;6098678;23;20048;-73
2022/11/20 02:23:42;;;;;;;25.83;12.00;;;;;;;;;;6100544;23;20373;-74
2022/11/20 02:26:11;;;;;;;26.80;12.77;;;;;;;;;;6126951;23;20002;-74
2022/11/20 02:28:39;;;;;;;25.98;12.15;;;;;;;;;;6099987;23;20009;-75
2022/11/20 02:31:06;;;;;;;23.65;11.85;;;;;;;;;;6126740;23;19998;-74
2022/11/20 02:33:32;;;;;;;23.25;11.30;;;;;;;;;;6126812;23;20025;-74
2022/11/20 02:35:58;;;;;;;20.90;10.52;;;;;;;;;;6100647;23;20006;-75
2022/11/20 02:38:24;;;;;;;27.23;12.57;;;;;;;;;;6125843;23;20061;-73
2022/11/20 02:40:50;;;;;;;22.92;11.65;;;;;;;;;;6126431;23;20006;-73
2022/11/20 02:43:16;;;;;;;35.25;12.38;;;;;;;;;;6100366;23;20006;-73
2022/11/20 02:45:42;;;;;;;26.38;12.13;;;;;;;;;;6126165;23;20001;-76
2022/11/20 02:48:08;;;;;;;22.27;10.93;;;;;;;;;;6125816;23;20338;-76
2022/11/20 02:50:36;;;;;;;26.73;11.77;;;;;;;;;;6119188;23;20010;-75
2022/11/20 02:53:03;;;;;;;26.70;12.07;;;;;;;;;;6125330;23;20002;-75
2022/11/20 02:55:32;;;;;;;24.55;11.82;;;;;;;;;;6124973;23;20076;-76
2022/11/20 02:57:58;;;;;;;27.63;11.77;;;;;;;;;;6126367;23;20076;-77
2022/11/20 03:00:24;;;;;;;24.23;11.10;;;;;;;;;;6124811;23;20030;-78
2022/11/20 03:02:50;;;;;;;21.42;11.13;;;;;;;;;;6124786;23;20010;-77
2022/11/20 03:05:16;;;;;;;26.38;11.85;;;;;;;;;;6124950;23;20077;-76
2022/11/20 03:07:43;;;;;;;29.38;11.68;;;;;;;;;;6124314;23;20057;-75
2022/11/20 03:10:09;;;;;;;21.38;11.20;;;;;;;;;;6126215;23;20001;-75
2022/11/20 03:12:36;;;;;;;22.00;10.55;;;;;;;;;;6124519;23;20018;-76
2022/11/20 03:15:02;;;;;;;26.08;11.88;;;;;;;;;;6126517;23;20009;-73
2022/11/20 03:17:29;;;;;;;24.08;11.27;;;;;;;;;;6124367;23;20005;-74
2022/11/20 03:19:55;;;;;;;21.50;11.30;;;;;;;;;;6126194;23;20006;-76
2022/11/20 03:22:23;;;;;;;22.30;11.13;;;;;;;;;;6124426;23;20006;-76
2022/11/20 03:24:52;;;;;;;24.17;12.60;;;;;;;;;;6126352;23;19998;-74
2022/11/20 03:27:18;;;;;;;21.90;10.45;;;;;;;;;;6126599;23;20002;-76
2022/11/20 03:29:44;;;;;;;23.02;11.65;;;;;;;;;;6124889;23;20006;-75
2022/11/20 03:32:11;;;;;;;27.88;12.38;;;;;;;;;;6124901;23;20009;-74
2022/11/20 03:34:37;;;;;;;23.17;11.50;;;;;;;;;;6126382;23;20006;-75
2022/11/20 03:37:03;;;;;;;24.25;10.93;;;;;;;;;;6125113;23;20080;-75
2022/11/20 03:39:29;;;;;;;22.23;11.40;;;;;;;;;;6126248;23;20506;-75
2022/11/20 03:41:55;;;;;;;21.10;11.20;;;;;;;;;;6126923;23;20002;-74
2022/11/20 03:44:21;;;;;;;24.50;11.00;;;;;;;;;;6126402;23;19998;-75
2022/11/20 03:46:48;;;;;;;24.83;12.02;;;;;;;;;;6126860;23;20005;-77
2022/11/20 03:49:14;;;;;;;22.52;11.77;;;;;;;;;;6126119;23;20014;-77
2022/11/20 03:51:40;;;;;;;22.52;11.50;;;;;;;;;;6127163;23;20073;-78
2022/11/20 03:54:07;;;;;;;21.70;10.75;;;;;;;;;;6126750;23;20057;-76
2022/11/20 03:56:34;;;;;;;24.55;11.32;;;;;;;;;;6127105;23;20006;-76
2022/11/20 03:59:01;;;;;;;24.35;11.80;;;;;;;;;;6139239;23;20069;-76
2022/11/20 04:01:28;;;;;;;22.42;11.10;;;;;;;;;;6140245;23;20025;-75
2022/11/20 04:03:55;;;;;;;21.65;10.82;;;;;;;;;;6137634;23;20073;-78
2022/11/20 04:06:22;;;;;;;22.75;10.80;;;;;;;;;;6107521;23;20010;-75
2022/11/20 04:08:49;;;;;;;24.00;11.30;;;;;;;;;;6099347;23;19998;-78
2022/11/20 04:11:16;;;;;;;25.38;11.40;;;;;;;;;;6099071;23;20066;-75
2022/11/20 04:13:43;;;;;;;25.95;12.18;;;;;;;;;;6099591;23;20109;-75
2022/11/20 04:16:10;;;;;;;23.98;11.73;;;;;;;;;;6099884;23;20013;-75
2022/11/20 04:18:36;;;;;;;24.90;11.65;;;;;;;;;;6125030;23;20006;-74
2022/11/20 04:21:03;;;;;;;23.33;11.52;;;;;;;;;;6125796;23;20081;-75
2022/11/20 04:23:29;;;;;;;22.98;10.35;;;;;;;;;;6126075;23;20016;-75
2022/11/20 04:26:01;;;;;;;24.45;11.07;;;;;;;;;;6100172;23;20006;-75
2022/11/20 04:28:27;;;;;;;22.42;11.43;;;;;;;;;;6127240;23;20321;-75
2022/11/20 04:30:53;;;;;;;22.95;10.55;;;;;;;;;;6127155;23;19998;-75
2022/11/20 04:33:19;;;;;;;23.35;11.57;;;;;;;;;;6126651;23;20327;-75
2022/11/20 04:35:47;;;;;;;21.38;10.80;;;;;;;;;;6100570;23;20089;-76
2022/11/20 04:38:15;;;;;;;22.08;11.00;;;;;;;;;;6126127;23;20028;-75
2022/11/20 04:40:41;;;;;;;26.13;11.90;;;;;;;;;;6100685;23;20041;-75
2022/11/20 04:43:07;;;;;;;25.27;12.05;;;;;;;;;;6125814;23;20006;-76
2022/11/20 04:45:33;;;;;;;24.50;11.63;;;;;;;;;;6124706;23;20021;-75
2022/11/20 04:47:59;;;;;;;23.52;11.10;;;;;;;;;;6099330;23;20141;-75
2022/11/20 04:50:25;;;;;;;24.38;11.13;;;;;;;;;;6126459;23;20026;-75
2022/11/20 04:52:52;;;;;;;21.08;10.07;;;;;;;;;;6099499;23;20016;-75
2022/11/20 04:55:28;;;;;;;;;;;;;;;;;;;;;
2022/11/20 04:57:54;;;;;;;22.60;11.07;;;;;;;;;;6125923;23;20228;-74
2022/11/20 05:00:20;;;;;;;19.73;10.35;;;;;;;;;;6101810;23;20466;-75
2022/11/20 05:02:49;;;;;;;22.55;9.70;;;;;;;;;;6125494;23;20439;-76
2022/11/20 05:05:16;;;;;;;21.75;10.85;;;;;;;;;;6099662;23;20056;-75
2022/11/20 05:07:44;;;;;;;21.50;10.38;;;;;;;;;;6125242;23;20415;-74
2022/11/20 05:10:10;;;;;;;25.77;11.88;;;;;;;;;;6099333;23;20057;-76
2022/11/20 05:12:36;;;;;;;25.13;11.00;;;;;;;;;;6099298;23;20013;-76
2022/11/20 05:15:02;;;;;;;20.98;9.85;;;;;;;;;;6125802;23;20002;-75
2022/11/20 05:17:28;;;;;;;20.95;9.95;;;;;;;;;;6099060;23;20383;-76
2022/11/20 05:19:55;;;;;;;20.65;9.88;;;;;;;;;;6098954;23;20006;-76
2022/11/20 05:22:21;;;;;;;22.58;10.48;;;;;;;;;;6100243;23;20040;-76
2022/11/20 05:24:47;;;;;;;27.40;11.27;;;;;;;;;;6125795;23;20001;-75
2022/11/20 05:27:13;;;;;;;19.08;10.32;;;;;;;;;;6099438;23;20002;-74
2022/11/20 05:29:42;;;;;;;22.02;10.05;;;;;;;;;;6125053;23;19998;-75
2022/11/20 05:32:09;;;;;;;20.25;9.55;;;;;;;;;;6101225;23;20035;-76
2022/11/20 05:34:35;;;;;;;21.23;10.50;;;;;;;;;;6100356;23;20002;-75
2022/11/20 05:37:02;;;;;;;17.25;8.68;;;;;;;;;;6125340;23;19998;-75
2022/11/20 05:39:28;;;;;;;20.15;9.32;;;;;;;;;;6099400;23;20013;-75
2022/11/20 05:44:39;;;;;;;21.60;9.13;;;;;;;;;;6125166;23;20025;-76
2022/11/20 05:47:08;;;;;;;21.08;10.23;;;;;;;;;;6099291;23;20057;-76
2022/11/20 05:49:34;;;;;;;21.83;9.40;;;;;;;;;;6105350;23;20014;-76
2022/11/20 05:52:00;;;;;;;18.73;9.57;;;;;;;;;;6123796;23;20006;-76
2022/11/20 05:54:28;;;;;;;18.83;9.98;;;;;;;;;;6125289;23;20033;-75
2022/11/20 05:56:54;;;;;;;19.20;9.05;;;;;;;;;;6124391;23;20382;-75
2022/11/20 05:59:28;;;;;;;19.92;8.63;;;;;;;;;;6123255;23;20006;-75
2022/11/20 06:01:54;;;;;;;17.77;8.75;;;;;;;;;;6126465;23;20081;-75
2022/11/20 06:04:20;;;;;;;17.15;9.23;;;;;;;;;;6124864;23;20005;-75
2022/11/20 06:06:46;;;;;;;18.50;8.98;;;;;;;;;;6123096;23;20006;-74
2022/11/20 06:09:12;;;;;;;17.77;9.05;;;;;;;;;;6124161;23;19995;-75
2022/11/20 06:11:38;;;;;;;17.42;8.48;;;;;;;;;;6123484;23;20005;-75
2022/11/20 06:14:05;;;;;;;17.50;8.75;;;;;;;;;;6124888;23;20014;-75
2022/11/20 06:16:33;;;;;;;18.98;8.43;;;;;;;;;;6122851;23;20006;-75
2022/11/20 06:18:59;;;;;;;17.55;8.52;;;;;;;;;;6124062;23;20006;-76
2022/11/20 06:21:26;;;;;;;18.40;8.95;;;;;;;;;;6123362;23;20006;-77
2022/11/20 06:23:53;;;;;;;16.25;8.35;;;;;;;;;;6123695;23;20369;-76
2022/11/20 06:26:20;;;;;;;18.05;9.07;;;;;;;;;;6125997;23;20087;-75
2022/11/20 06:28:51;;;;;;;15.68;7.47;;;;;;;;;;6125762;23;20033;-74
2022/11/20 06:31:18;;;;;;;19.10;9.63;;;;;;;;;;6125007;23;19998;-76
2022/11/20 06:33:44;;;;;;;17.52;8.02;;;;;;;;;;6125026;23;20013;-77
2022/11/20 06:36:11;;;;;;;18.13;8.88;;;;;;;;;;6123155;23;20452;-76
2022/11/20 06:38:37;;;;;;;18.50;7.82;;;;;;;;;;6123931;23;20450;-74
2022/11/20 06:41:04;;;;;;;16.95;8.20;;;;;;;;;;6124206;23;20002;-76
2022/11/20 06:43:30;;;;;;;18.00;9.35;;;;;;;;;;6123345;23;20355;-76
2022/11/20 06:45:57;;;;;;;16.83;8.23;;;;;;;;;;6123709;23;20002;-76
2022/11/20 06:48:26;;;;;;;19.05;8.50;;;;;;;;;;6122858;23;20526;-76
2022/11/20 06:50:52;;;;;;;15.00;8.32;;;;;;;;;;6123337;23;20006;-75
2022/11/20 06:53:26;;;;;;;18.25;9.48;;;;;;;;;;6123399;23;20423;-74
2022/11/20 06:55:56;;;;;;;18.92;9.65;;;;;;;;;;6124448;23;20447;-75
2022/11/20 06:58:22;;;;;;;18.80;9.73;;;;;;;;;;6123775;23;20463;-76
2022/11/20 07:00:53;;;;;;;23.85;10.38;;;;;;;;;;6124857;23;20006;-76
2022/11/20 07:03:19;;;;;;;21.90;10.40;;;;;;;;;;6125067;23;20430;-77
2022/11/20 07:05:46;;;;;;;19.15;10.20;;;;;;;;;;6123829;23;20439;-76
2022/11/20 07:08:12;;;;;;;20.25;10.68;;;;;;;;;;6125294;23;20065;-76
2022/11/20 07:10:38;;;;;;;21.17;10.75;;;;;;;;;;6124938;23;19994;-77
2022/11/20 07:13:04;;;;;;;23.67;11.15;;;;;;;;;;6126535;23;20009;-76
2022/11/20 07:15:31;;;;;;;21.08;10.15;;;;;;;;;;6125780;23;20010;-76
2022/11/20 07:17:59;;;;;;;18.70;9.60;;;;;;;;;;6125135;23;20414;-75
2022/11/20 07:20:25;;;;;;;17.25;9.20;;;;;;;;;;6126803;23;20387;-75
2022/11/20 07:22:58;;;;;;;20.17;10.32;;;;;;;;;;6126097;23;20006;-75
2022/11/20 07:25:24;;;;;;;16.98;9.63;;;;;;;;;;6124488;23;20008;-76
2022/11/20 07:27:50;;;;;;;21.27;9.85;;;;;;;;;;6125921;23;19998;-76
2022/11/20 07:30:17;;;;;;;19.35;10.52;;;;;;;;;;6125857;23;20072;-75
2022/11/20 07:32:49;;;;;;;16.83;8.75;;;;;;;;;;6125048;23;20006;-76
2022/11/20 07:35:15;;;;;;;16.25;8.77;;;;;;;;;;6124268;23;20060;-75
2022/11/20 07:37:41;;;;;;;13.40;7.57;;;;;;;;;;6125736;23;20057;-75
2022/11/20 07:40:08;;;;;;;16.98;7.82;;;;;;;;;;6125973;23;20009;-74
2022/11/20 07:42:34;;;;;;;16.23;8.63;;;;;;;;;;6126226;23;20431;-74
2022/11/20 07:45:00;;;;;;;16.10;8.85;;;;;;;;;;6124450;23;20131;-74
2022/11/20 07:47:26;;;;;;;15.00;8.43;;;;;;;;;;6125836;23;20423;-75
2022/11/20 07:49:55;;;;;;;16.05;8.68;;;;;;;;;;6125739;23;20013;-77
2022/11/20 07:52:21;;;;;;;16.95;8.88;;;;;;;;;;6099893;23;20072;-78
2022/11/20 07:54:47;;;;;;;15.05;7.82;;;;;;;;;;6099752;23;20033;-79
2022/11/20 07:57:13;;;;;;;17.30;9.90;;;;;;;;;;6125793;23;20042;-77
2022/11/20 07:59:47;;;;;;;16.75;9.38;;;;;;;;;;6099172;23;20431;-75
2022/11/20 08:02:13;;;;;;;17.70;9.23;;;;;;;;;;6099605;23;20002;-75
2022/11/20 08:04:41;;;;;;;16.85;8.70;;;;;;;;;;6125547;23;20005;-76
2022/11/20 08:07:07;;;;;;;18.17;8.82;;;;;;;;;;6125204;23;20009;-75
2022/11/20 08:09:34;;;;;;;18.52;9.27;;;;;;;;;;6099741;23;20461;-79
2022/11/20 08:14:47;;;;;;;17.70;9.85;;;;;;;;;;6125549;23;20029;-75
2022/11/20 08:17:13;;;;;;;18.20;10.15;;;;;;;;;;6099296;23;20009;-76
2022/11/20 08:19:39;;;;;;;21.55;11.15;;;;;;;;;;6099184;23;20060;-75
2022/11/20 08:22:08;;;;;;;21.48;11.30;;;;;;;;;;6099212;23;20010;-76
2022/11/20 08:24:44;;;;;;;22.38;11.43;;;;;;;;;;6104879;23;20006;-78
2022/11/20 08:27:10;;;;;;;22.52;12.77;;;;;;;;;;6108850;23;20006;-75
2022/11/20 08:29:36;;;;;;;18.52;10.48;;;;;;;;;;6132456;23;20005;-77
2022/11/20 08:32:06;;;;;;;19.85;10.70;;;;;;;;;;6104065;23;20001;-74
2022/11/20 08:34:39;;;;;;;23.45;11.35;;;;;;;;;;6129300;23;20442;-74
2022/11/20 08:37:05;;;;;;;20.98;10.93;;;;;;;;;;6101918;23;20458;-76
2022/11/20 08:39:34;;;;;;;23.73;12.02;;;;;;;;;;6100363;23;20040;-76
2022/11/20 08:42:01;;;;;;;22.35;12.50;;;;;;;;;;6100435;23;20272;-76
2022/11/20 08:44:27;;;;;;;23.90;13.38;;;;;;;;;;6099690;23;20010;-76
2022/11/20 08:46:53;;;;;;;27.02;13.38;;;;;;;;;;6099642;23;20061;-75
2022/11/20 08:49:22;;;;;;;26.17;13.55;;;;;;;;;;6124861;23;20013;-76
2022/11/20 08:51:53;;;;;;;25.42;13.77;;;;;;;;;;6099634;23;20028;-76
2022/11/20 08:54:23;;;;;;;24.17;12.88;;;;;;;;;;6099551;23;20009;-75
2022/11/20 08:56:53;;;;;;;26.77;14.07;;;;;;;;;;6099681;23;20009;-78
2022/11/20 08:59:19;;;;;;;26.60;15.02;;;;;;;;;;6098876;23;20021;-76
2022/11/20 09:01:45;;;;;;;24.02;12.70;;;;;;;;;;6125342;23;20013;-76
2022/11/20 09:04:13;;;;;;;24.35;12.90;;;;;;;;;;6125547;23;20502;-75
2022/11/20 09:06:40;;;;;;;31.45;15.23;;;;;;;;;;6099373;23;20002;-76
2022/11/20 09:12:24;;;;;;;;;;;;;;;;;;;;;
2022/11/20 09:20:43;;;;;;;26.88;13.50;;;;;;;;;;6205163;22;20131;-76
2022/11/20 09:35:28;;;;;;;36.88;16.70;;;;;;;;;;6093309;23;20069;-75
2022/11/20 09:37:54;;;;;;;28.75;14.80;;;;;;;;;;6243559;23;20014;-75
2022/11/20 09:40:40;;;;;;;28.58;15.05;;;;;;;;;;6244562;23;19996;-75
2022/11/20 09:46:51;;;;;;;31.15;14.82;;;;;;;;;;6150202;23;20009;-77
2022/11/20 09:49:51;;;;;;;29.92;14.13;;;;;;;;;;6150906;23;20178;-76
2022/11/20 09:52:38;;;;;;;24.98;12.50;;;;;;;;;;6127384;23;20423;-76
2022/11/20 09:55:27;;;;;;;26.25;13.63;;;;;;;;;;6152018;23;20005;-76
2022/11/20 10:01:28;;;;;;;29.40;15.15;;;;;;;;;;6193785;23;20070;-75
2022/11/20 10:07:34;;;;;;;28.67;14.65;;;;;;;;;;6244571;23;20003;-80
2022/11/20 10:10:31;;;;;;;27.77;12.48;;;;;;;;;;6244233;23;20011;-75
2022/11/20 10:16:26;;;;;;;28.15;14.60;;;;;;;;;;6150658;23;20505;-75
2022/11/20 10:19:24;;;;;;;25.02;13.00;;;;;;;;;;6151131;23;20057;-74
2022/11/20 10:22:17;;;;;;;25.73;12.15;;;;;;;;;;6126343;23;20013;-76
2022/11/20 10:25:08;;;;;;;;;;;;;;;;;;;;;
2022/11/20 10:30:44;;;;;;;;;;;;;;;;;;;;;
2022/11/20 10:33:53;;;;;;;28.10;15.60;;;;;;;;;;6209011;23;20084;-75
2022/11/20 10:39:29;;;;;;;25.17;13.80;;;;;;;;;;6214329;23;20440;-76
2022/11/20 10:42:30;;;;;;;26.85;14.57;;;;;;;;;;6183273;23;20005;-80
2022/11/20 10:45:15;;;;;;;24.58;13.25;;;;;;;;;;6186972;23;20071;-81
2022/11/20 10:48:17;;;;;;;;;;;;;;;;;;;;;
2022/11/20 11:01:15;;;;;;;22.10;11.45;;;;;;;;;;6125422;23;20053;-80
2022/11/20 11:04:00;;;;;;;;;;;;;;;;;;;;;
2022/11/20 11:06:59;;;;;;;22.08;12.02;;;;;;;;;;6181867;23;20068;-80
2022/11/20 11:09:45;;;;;;;22.95;12.18;;;;;;;;;;6188023;23;20396;-80
2022/11/20 11:24:56;;;;;;;14.07;6.57;;;;;;;;;;6106958;23;20038;-79
2022/11/20 11:27:50;;;;;;;;;;;;;;;;;;;;;
2022/11/20 11:31:23;;;;;;;;;;;;;;;;;;;;;
2022/11/20 11:34:14;;;;;;;12.43;6.57;;;;;;;;;;6180050;23;20048;-80
2022/11/20 11:37:16;;;;;;;;;;;;;;;;;;;;;
2022/11/20 11:40:33;;;;;;;;;;;;;;;;;;;;;
2022/11/20 11:46:23;;;;;;;15.45;8.32;;;;;;;;;;6184343;23;20040;-81
2022/11/20 11:49:13;;;;;;;13.40;7.95;;;;;;;;;;6179742;23;20001;-79
2022/11/20 11:55:24;;;;;;;13.60;8.27;;;;;;;;;;6199392;23;20009;-79
2022/11/20 11:59:03;;;;;;;16.38;8.60;;;;;;;;;;6211424;23;20005;-78
2022/11/20 12:14:05;;;;;;;;;;;;;;;;;;;;;
2022/11/20 12:17:17;;;;;;;15.48;9.02;;;;;;;;;;6217918;23;20076;-78
2022/11/20 12:26:45;;;;;;;;;;;;;;;;;;;;;
2022/11/20 12:35:55;;;;;;;;;;;;;;;;;;;;;
2022/11/20 12:48:30;;;;;;;16.25;9.07;;;;;;;;;;6212059;23;20500;-79
2022/11/20 12:51:27;;;;;;;30.48;17.00;;;;;;;;;;6187439;23;20004;-78
2022/11/20 13:00:12;;;;;;;16.52;9.48;;;;;;;;;;6234308;23;20030;-79
2022/11/20 13:03:04;;;;;;;18.38;9.15;;;;;;;;;;6241124;23;20321;-78
2022/11/20 13:12:46;;;;;;;16.83;9.25;;;;;;;;;;6065418;23;20090;-79
2022/11/20 13:22:37;;;;;;;17.67;10.73;;;;;;;;;;6055281;23;20018;-79
2022/11/20 13:28:46;;;;;;;;;;;;;;;;;;;;;
2022/11/20 13:31:41;;;;;;;14.60;8.73;;;;;;;;;;6266368;22;20007;-84
2022/11/20 13:34:44;;;;;;;;;;;;;;;;;;;;;
2022/11/20 13:37:35;;;;;;;15.63;9.10;;;;;;;;;;6113396;23;20084;-80
2022/11/20 13:40:36;;;;;;;16.48;9.32;;;;;;;;;;6077700;23;20007;-77
2022/11/20 13:43:40;;;;;;;13.88;8.57;;;;;;;;;;6073324;23;20018;-79
2022/11/20 13:47:18;;;;;;;11.57;7.32;;;;;;;;;;6080849;23;20081;-79
2022/11/20 13:50:05;;;;;;;;;;;;;;;;;;;;;
2022/11/20 13:53:07;;;;;;;13.32;7.97;;;;;;;;;;6099567;23;20466;-81
2022/11/20 14:07:46;;;;;;;13.25;7.25;;;;;;;;;;6197258;23;20459;-79
2022/11/20 14:14:03;;;;;;;;;;;;;;;;;;;;;
2022/11/20 14:19:22;;;;;;;12.75;7.15;;;;;;;;;;6184829;23;20011;-79
2022/11/20 14:22:33;;;;;;;11.35;7.03;;;;;;;;;;6218012;23;20372;-79
2022/11/20 14:25:43;;;;;;;11.73;7.05;;;;;;;;;;6202299;23;20449;-79
2022/11/20 14:29:35;;;;;;;13.40;8.05;;;;;;;;;;6214558;23;20024;-79
2022/11/20 14:34:42;;;;;;;11.77;7.40;;;;;;;;;;6214554;23;20004;-79
2022/11/20 14:37:42;;;;;;;13.32;7.53;;;;;;;;;;6210107;23;20011;-79
2022/11/20 14:40:30;;;;;;;13.07;7.68;;;;;;;;;;6189277;23;20009;-80
2022/11/20 14:43:22;;;;;;;13.30;7.90;;;;;;;;;;6212705;23;20437;-79
2022/11/20 14:45:55;;;;;;;13.15;7.90;;;;;;;;;;6216442;23;20035;-78
2022/11/20 14:48:35;;;;;;;15.55;9.18;;;;;;;;;;6215366;23;20004;-80
2022/11/20 14:51:01;;;;;;;14.20;8.07;;;;;;;;;;6215263;23;20008;-78
2022/11/20 14:53:34;;;;;;;14.27;8.45;;;;;;;;;;6211823;23;20004;-78
2022/11/20 14:56:01;;;;;;;13.95;8.55;;;;;;;;;;6214091;23;19996;-78
2022/11/20 14:58:33;;;;;;;15.00;8.85;;;;;;;;;;6213559;23;20409;-78
2022/11/20 15:01:01;;;;;;;15.20;8.45;;;;;;;;;;6212911;23;20092;-78
2022/11/20 15:03:34;;;;;;;16.40;9.73;;;;;;;;;;6216238;23;20349;-79
2022/11/20 15:06:04;;;;;;;15.38;9.45;;;;;;;;;;6216015;23;20005;-79
2022/11/20 15:08:33;;;;;;;19.35;10.35;;;;;;;;;;6214425;23;20028;-78
2022/11/20 15:11:22;;;;;;;19.23;10.65;;;;;;;;;;6216163;23;20012;-78
2022/11/20 15:13:57;;;;;;;16.52;9.40;;;;;;;;;;6193091;23;20437;-79
2022/11/20 15:16:26;;;;;;;19.38;9.95;;;;;;;;;;6218621;23;20005;-79
2022/11/20 15:18:52;;;;;;;20.17;10.25;;;;;;;;;;6217236;23;20055;-78
2022/11/20 15:21:25;;;;;;;20.40;11.73;;;;;;;;;;6215096;23;20134;-78
2022/11/20 15:23:54;;;;;;;19.50;10.93;;;;;;;;;;6215132;23;20028;-79
2022/11/20 15:26:28;;;;;;;20.20;11.95;;;;;;;;;;6215767;23;20006;-79
2022/11/20 15:28:54;;;;;;;21.20;11.10;;;;;;;;;;6214693;23;20011;-80
2022/11/20 15:31:23;;;;;;;22.35;12.40;;;;;;;;;;6219379;23;19996;-79
2022/11/20 15:34:06;;;;;;;22.75;13.18;;;;;;;;;;6218398;23;20008;-79
2022/11/20 15:36:37;;;;;;;23.35;13.05;;;;;;;;;;6185858;23;20013;-79
2022/11/20 15:39:11;;;;;;;28.67;15.10;;;;;;;;;;6218837;23;20030;-80
2022/11/20 15:44:53;;;;;;;38.72;19.35;;;;;;;;;;6095872;23;20089;-79
2022/11/20 15:47:27;;;;;;;47.92;22.75;;;;;;;;;;6204777;23;20475;-79
2022/11/20 15:50:06;;;;;;;36.40;17.85;;;;;;;;;;6190842;23;20003;-79
2022/11/20 15:52:34;;;;;;;31.13;14.60;;;;;;;;;;6216916;23;20000;-80
2022/11/20 15:55:13;;;;;;;26.33;13.70;;;;;;;;;;6212959;23;20008;-79
2022/11/20 15:57:48;;;;;;;26.38;13.27;;;;;;;;;;6213857;23;20051;-79
2022/11/20 16:00:58;;;;;;;;;;;;;;;;;;;;;
2022/11/20 16:10:18;;;;;;;;;;;;;;;;;;;;;
2022/11/20 16:16:02;;;;;;;;;;;;;;;;;;;;;
2022/11/20 16:25:05;;;;;;;27.48;14.07;;;;;;;;;;6095902;23;20068;-77
2022/11/20 16:31:05;;;;;;;;;;;;;;;;;;;;;
2022/11/20 16:33:50;;;;;;;;;;;;;;;;;;;;;
2022/11/20 16:36:25;;;;;;;29.88;15.60;;;;;;;;;;6223247;23;20036;-78
2022/11/20 16:39:29;;;;;;;69.22;31.98;;;;;;;;;;6218632;23;20000;-77
2022/11/20 16:42:28;;;;;;;;;;;;;;;;;;;;;
2022/11/20 16:45:05;;;;;;;222.52;78.65;;;;;;;;;;6208727;23;20069;-79
2022/11/20 16:50:42;;;;;;;75.75;31.02;;;;;;;;;;6217141;23;20460;-80
2022/11/20 17:00:01;;;;;;;98.78;41.58;;;;;;;;;;6154747;23;20449;-78
2022/11/20 17:02:39;;;;;;;43.65;18.77;;;;;;;;;;6218910;23;20004;-76
2022/11/20 17:05:39;;;;;;;43.20;21.08;;;;;;;;;;6197019;23;20036;-77
2022/11/20 17:11:17;;;;;;;42.70;19.75;;;;;;;;;;6203974;23;20004;-77
2022/11/20 17:13:59;;;;;;;;;;;;;;;;;;;;;
2022/11/20 17:16:54;;;;;;;110.43;44.15;;;;;;;;;;6211536;23;20492;-78
2022/11/20 17:19:36;;;;;;;44.25;20.35;;;;;;;;;;6212717;23;20055;-79
2022/11/20 17:22:26;;;;;;;42.55;19.80;;;;;;;;;;6189309;23;20004;-78
2022/11/20 17:25:06;;;;;;;45.55;19.92;;;;;;;;;;6186955;23;20084;-76
2022/11/20 17:31:00;;;;;;;;;;;;;;;;;;;;;
2022/11/20 17:33:45;;;;;;;45.08;21.33;;;;;;;;;;6215123;23;20488;-78
2022/11/20 17:36:43;;;;;;;44.20;19.92;;;;;;;;;;6188073;23;20421;-77
2022/11/20 17:45:20;;;;;;;41.70;19.83;;;;;;;;;;6227306;23;20039;-78
2022/11/20 17:48:03;;;;;;;41.58;19.50;;;;;;;;;;6201379;23;20001;-78
2022/11/20 17:50:34;;;;;;;46.17;19.02;;;;;;;;;;6206129;23;20004;-78
2022/11/20 17:53:11;;;;;;;;;;;;;;;;;;;;;
2022/11/20 17:58:47;;;;;;;;;;;;;;;;;;;;;
2022/11/20 18:01:25;;;;;;;35.30;17.52;;;;;;;;;;6210312;23;20053;-77
2022/11/20 18:03:54;;;;;;;40.00;17.63;;;;;;;;;;6215121;23;20396;-78
2022/11/20 18:10:27;;;;;;;35.22;17.48;;;;;;;;;;6198799;23;20016;-78
2022/11/20 18:12:20;;;;;;;46.33;19.08;;;;;;;;;;6186451;23;20015;-79
2022/11/20 18:14:55;;;;;;;32.30;16.83;;;;;;;;;;6189023;23;20019;-79
2022/11/20 18:17:28;;;;;;;35.45;17.10;;;;;;;;;;6214733;23;20005;-78
2022/11/20 18:19:54;;;;;;;33.90;17.25;;;;;;;;;;6188327;23;20015;-79
2022/11/20 18:22:21;;;;;;;37.47;18.98;;;;;;;;;;6215106;23;20054;-78
2022/11/20 18:24:53;;;;;;;32.53;15.32;;;;;;;;;;6189439;23;20012;-78
2022/11/20 18:27:24;;;;;;;33.58;16.10;;;;;;;;;;6190336;23;20009;-78
2022/11/20 18:29:53;;;;;;;29.10;14.43;;;;;;;;;;6189083;23;20390;-78
2022/11/20 18:32:22;;;;;;;33.15;16.35;;;;;;;;;;6188100;23;20005;-78
2022/11/20 18:34:51;;;;;;;32.03;16.02;;;;;;;;;;6189004;23;20020;-80
2022/11/20 18:37:17;;;;;;;37.28;17.63;;;;;;;;;;6216897;23;20012;-79
2022/11/20 18:39:48;;;;;;;32.65;16.70;;;;;;;;;;6191246;23;20015;-78
2022/11/20 18:45:02;;;;;;;41.60;18.77;;;;;;;;;;6218251;23;20471;-78
2022/11/20 18:47:34;;;;;;;36.38;18.23;;;;;;;;;;6190358;23;20012;-79
2022/11/20 18:50:01;;;;;;;41.03;18.48;;;;;;;;;;6190279;23;19997;-79
2022/11/20 18:52:36;;;;;;;36.03;16.80;;;;;;;;;;6189255;23;20104;-78
2022/11/20 18:55:03;;;;;;;36.78;17.60;;;;;;;;;;6189059;23;20524;-79
2022/11/20 18:57:29;;;;;;;32.42;15.75;;;;;;;;;;6215106;23;20333;-78
2022/11/20 18:59:58;;;;;;;36.67;17.10;;;;;;;;;;6216711;23;20376;-78
2022/11/20 19:02:26;;;;;;;32.85;16.10;;;;;;;;;;6216083;23;19996;-78
2022/11/20 19:04:53;;;;;;;28.90;15.93;;;;;;;;;;6193837;23;20437;-80
2022/11/20 19:07:34;;;;;;;32.45;16.00;;;;;;;;;;6196336;23;20011;-78